sensor_id;sensor_type;location;lat;lon;timestamp;pressure;altitude;pressure_sealevel;temperature;humidity
80585;BME280;70137;56.482;9.154;2023-05-19T00:00:33;103008.09;;;6.98;67.10
80585;BME280;70137;56.482;9.154;2023-05-19T00:03:01;103008.69;;;6.87;66.97
80585;BME280;70137;56.482;9.154;2023-05-19T00:05:27;103001.34;;;6.80;67.13
80585;BME280;70137;56.482;9.154;2023-05-19T00:07:57;103009.31;;;6.75;67.19
80585;BME280;70137;56.482;9.154;2023-05-19T00:10:24;103001.69;;;6.74;66.68
80585;BME280;70137;56.482;9.154;2023-05-19T00:12:50;103006.09;;;6.72;66.89
80585;BME280;70137;56.482;9.154;2023-05-19T00:15:15;102998.34;;;6.72;66.75
80585;BME280;70137;56.482;9.154;2023-05-19T00:17:41;102997.84;;;6.65;67.22
80585;BME280;70137;56.482;9.154;2023-05-19T00:20:07;103008.50;;;6.59;67.31
80585;BME280;70137;56.482;9.154;2023-05-19T00:22:32;103004.00;;;6.47;67.09
80585;BME280;70137;56.482;9.154;2023-05-19T00:24:58;103003.31;;;6.27;66.98
80585;BME280;70137;56.482;9.154;2023-05-19T00:27:23;103006.41;;;6.17;67.24
80585;BME280;70137;56.482;9.154;2023-05-19T00:29:48;103014.38;;;6.12;66.77
80585;BME280;70137;56.482;9.154;2023-05-19T00:32:14;103008.69;;;6.06;66.91
80585;BME280;70137;56.482;9.154;2023-05-19T00:34:40;103009.78;;;6.01;67.03
80585;BME280;70137;56.482;9.154;2023-05-19T00:37:05;103010.78;;;5.99;67.10
80585;BME280;70137;56.482;9.154;2023-05-19T00:39:30;103014.09;;;6.01;67.49
80585;BME280;70137;56.482;9.154;2023-05-19T00:41:56;103013.84;;;6.06;66.87
80585;BME280;70137;56.482;9.154;2023-05-19T00:44:21;103013.72;;;6.09;67.91
80585;BME280;70137;56.482;9.154;2023-05-19T00:46:46;103014.47;;;6.11;67.92
80585;BME280;70137;56.482;9.154;2023-05-19T00:49:12;103010.06;;;6.13;68.48
80585;BME280;70137;56.482;9.154;2023-05-19T00:51:37;103011.81;;;6.12;68.11
80585;BME280;70137;56.482;9.154;2023-05-19T00:54:03;103002.41;;;6.11;68.02
80585;BME280;70137;56.482;9.154;2023-05-19T00:56:30;103002.41;;;6.11;68.05
80585;BME280;70137;56.482;9.154;2023-05-19T00:58:56;102998.28;;;6.09;68.04
80585;BME280;70137;56.482;9.154;2023-05-19T01:01:22;103007.75;;;6.08;68.35
80585;BME280;70137;56.482;9.154;2023-05-19T01:03:48;103005.22;;;6.07;68.39
80585;BME280;70137;56.482;9.154;2023-05-19T01:06:13;103000.41;;;6.00;67.88
80585;BME280;70137;56.482;9.154;2023-05-19T01:08:39;103004.44;;;5.87;67.15
80585;BME280;70137;56.482;9.154;2023-05-19T01:11:05;103007.66;;;5.75;67.23
80585;BME280;70137;56.482;9.154;2023-05-19T01:13:32;103014.91;;;5.67;67.30
80585;BME280;70137;56.482;9.154;2023-05-19T01:16:09;103010.91;;;5.61;67.50
80585;BME280;70137;56.482;9.154;2023-05-19T01:32:19;103005.63;;;5.28;67.28
80585;BME280;70137;56.482;9.154;2023-05-19T01:34:47;103004.28;;;5.21;68.02
80585;BME280;70137;56.482;9.154;2023-05-19T01:37:14;103007.91;;;5.17;67.52
80585;BME280;70137;56.482;9.154;2023-05-19T01:39:41;103007.22;;;5.13;67.64
80585;BME280;70137;56.482;9.154;2023-05-19T01:42:06;103017.50;;;5.13;67.25
80585;BME280;70137;56.482;9.154;2023-05-19T01:44:32;103019.44;;;5.08;67.33
80585;BME280;70137;56.482;9.154;2023-05-19T01:46:59;103017.09;;;5.04;67.58
80585;BME280;70137;56.482;9.154;2023-05-19T01:49:24;103017.09;;;5.04;67.86
80585;BME280;70137;56.482;9.154;2023-05-19T01:51:51;103015.13;;;5.09;68.48
80585;BME280;70137;56.482;9.154;2023-05-19T01:54:17;103016.66;;;5.13;68.59
80585;BME280;70137;56.482;9.154;2023-05-19T01:56:54;103021.50;;;5.19;68.67
80585;BME280;70137;56.482;9.154;2023-05-19T01:59:44;103016.09;;;5.25;69.03
80585;BME280;70137;56.482;9.154;2023-05-19T02:02:25;103015.03;;;5.29;69.87
80585;BME280;70137;56.482;9.154;2023-05-19T02:04:59;103009.66;;;5.34;69.58
80585;BME280;70137;56.482;9.154;2023-05-19T02:07:40;103012.84;;;5.39;69.47
80585;BME280;70137;56.482;9.154;2023-05-19T02:10:19;103015.50;;;5.37;69.35
80585;BME280;70137;56.482;9.154;2023-05-19T02:12:48;103008.00;;;5.33;69.62
80585;BME280;70137;56.482;9.154;2023-05-19T02:15:16;103004.88;;;5.26;69.26
80585;BME280;70137;56.482;9.154;2023-05-19T02:17:43;103019.75;;;5.20;69.36
80585;BME280;70137;56.482;9.154;2023-05-19T02:20:14;103006.44;;;5.11;69.14
80585;BME280;70137;56.482;9.154;2023-05-19T02:22:40;102994.72;;;5.06;69.91
80585;BME280;70137;56.482;9.154;2023-05-19T02:25:06;103004.16;;;5.05;69.89
80585;BME280;70137;56.482;9.154;2023-05-19T02:27:33;102999.84;;;5.06;70.24
80585;BME280;70137;56.482;9.154;2023-05-19T02:29:58;102996.66;;;5.01;70.60
80585;BME280;70137;56.482;9.154;2023-05-19T02:32:24;103002.63;;;5.01;71.24
80585;BME280;70137;56.482;9.154;2023-05-19T02:34:49;102998.47;;;4.99;71.48
80585;BME280;70137;56.482;9.154;2023-05-19T02:37:15;103001.94;;;4.98;71.75
80585;BME280;70137;56.482;9.154;2023-05-19T02:39:41;102991.81;;;4.95;71.92
80585;BME280;70137;56.482;9.154;2023-05-19T02:42:06;102998.78;;;4.93;72.24
80585;BME280;70137;56.482;9.154;2023-05-19T02:44:32;102989.59;;;4.87;72.48
80585;BME280;70137;56.482;9.154;2023-05-19T02:46:57;102997.66;;;4.79;72.52
80585;BME280;70137;56.482;9.154;2023-05-19T02:49:22;102991.94;;;4.73;72.63
80585;BME280;70137;56.482;9.154;2023-05-19T02:51:47;102991.28;;;4.69;73.46
80585;BME280;70137;56.482;9.154;2023-05-19T02:54:13;102989.47;;;4.71;73.55
80585;BME280;70137;56.482;9.154;2023-05-19T02:56:38;102987.03;;;4.68;73.19
80585;BME280;70137;56.482;9.154;2023-05-19T02:59:03;102989.75;;;4.65;72.76
80585;BME280;70137;56.482;9.154;2023-05-19T03:01:29;102998.38;;;4.64;72.82
80585;BME280;70137;56.482;9.154;2023-05-19T03:03:56;102996.69;;;4.63;73.04
80585;BME280;70137;56.482;9.154;2023-05-19T03:06:22;102995.84;;;4.63;73.00
80585;BME280;70137;56.482;9.154;2023-05-19T03:08:47;102991.53;;;4.63;73.23
80585;BME280;70137;56.482;9.154;2023-05-19T03:11:13;102989.03;;;4.62;73.15
80585;BME280;70137;56.482;9.154;2023-05-19T03:13:39;103000.28;;;4.59;72.88
80585;BME280;70137;56.482;9.154;2023-05-19T03:16:05;102999.53;;;4.57;72.69
80585;BME280;70137;56.482;9.154;2023-05-19T03:18:32;102998.78;;;4.55;72.79
80585;BME280;70137;56.482;9.154;2023-05-19T03:20:57;102993.75;;;4.52;72.76
80585;BME280;70137;56.482;9.154;2023-05-19T03:23:23;103005.00;;;4.49;72.61
80585;BME280;70137;56.482;9.154;2023-05-19T03:25:48;102998.22;;;4.48;73.01
80585;BME280;70137;56.482;9.154;2023-05-19T03:28:13;102999.03;;;4.49;72.62
80585;BME280;70137;56.482;9.154;2023-05-19T03:30:39;103000.56;;;4.53;72.71
80585;BME280;70137;56.482;9.154;2023-05-19T03:33:04;102997.94;;;4.54;72.60
80585;BME280;70137;56.482;9.154;2023-05-19T03:35:29;102991.84;;;4.57;72.90
80585;BME280;70137;56.482;9.154;2023-05-19T03:37:55;102990.03;;;4.59;73.33
80585;BME280;70137;56.482;9.154;2023-05-19T03:40:20;102991.63;;;4.62;73.57
80585;BME280;70137;56.482;9.154;2023-05-19T03:42:45;102988.09;;;4.64;73.04
80585;BME280;70137;56.482;9.154;2023-05-19T03:45:11;102987.13;;;4.67;73.02
80585;BME280;70137;56.482;9.154;2023-05-19T03:47:36;102986.13;;;4.69;73.18
80585;BME280;70137;56.482;9.154;2023-05-19T03:50:01;102986.97;;;4.70;73.24
80585;BME280;70137;56.482;9.154;2023-05-19T03:52:27;102990.44;;;4.69;72.87
80585;BME280;70137;56.482;9.154;2023-05-19T03:54:52;102993.00;;;4.69;73.17
80585;BME280;70137;56.482;9.154;2023-05-19T03:57:17;103005.03;;;4.68;73.58
80585;BME280;70137;56.482;9.154;2023-05-19T03:59:43;102998.16;;;4.69;73.56
80585;BME280;70137;56.482;9.154;2023-05-19T04:02:08;103003.97;;;4.72;73.72
80585;BME280;70137;56.482;9.154;2023-05-19T04:04:33;103003.03;;;4.75;73.44
80585;BME280;70137;56.482;9.154;2023-05-19T04:06:59;103007.38;;;4.73;73.54
80585;BME280;70137;56.482;9.154;2023-05-19T04:09:25;102997.09;;;4.73;73.41
80585;BME280;70137;56.482;9.154;2023-05-19T04:11:50;103008.22;;;4.73;74.10
80585;BME280;70137;56.482;9.154;2023-05-19T04:14:16;103009.06;;;4.74;73.86
80585;BME280;70137;56.482;9.154;2023-05-19T04:16:41;103014.97;;;4.76;74.24
80585;BME280;70137;56.482;9.154;2023-05-19T04:19:06;103012.16;;;4.80;74.15
80585;BME280;70137;56.482;9.154;2023-05-19T04:21:32;103001.63;;;4.86;73.84
80585;BME280;70137;56.482;9.154;2023-05-19T04:23:57;103009.19;;;4.89;73.75
80585;BME280;70137;56.482;9.154;2023-05-19T04:26:24;103009.19;;;4.89;73.66
80585;BME280;70137;56.482;9.154;2023-05-19T04:28:50;103004.03;;;4.89;73.76
80585;BME280;70137;56.482;9.154;2023-05-19T04:31:16;103010.72;;;4.94;74.26
80585;BME280;70137;56.482;9.154;2023-05-19T04:33:42;103016.47;;;4.99;74.13
80585;BME280;70137;56.482;9.154;2023-05-19T04:36:07;103010.97;;;5.06;74.39
80585;BME280;70137;56.482;9.154;2023-05-19T04:38:35;103021.66;;;5.16;74.07
80585;BME280;70137;56.482;9.154;2023-05-19T04:41:01;103021.38;;;5.22;74.23
80585;BME280;70137;56.482;9.154;2023-05-19T04:43:27;103019.41;;;5.27;74.16
80585;BME280;70137;56.482;9.154;2023-05-19T04:45:53;103016.41;;;5.36;74.10
80585;BME280;70137;56.482;9.154;2023-05-19T04:48:19;103019.28;;;5.47;74.78
80585;BME280;70137;56.482;9.154;2023-05-19T04:50:46;103021.34;;;5.58;74.63
80585;BME280;70137;56.482;9.154;2023-05-19T04:53:13;103020.06;;;5.67;74.64
80585;BME280;70137;56.482;9.154;2023-05-19T04:55:38;103022.25;;;5.74;74.53
80585;BME280;70137;56.482;9.154;2023-05-19T04:58:03;103022.72;;;5.83;74.67
80585;BME280;70137;56.482;9.154;2023-05-19T05:00:29;103023.13;;;5.92;74.84
80585;BME280;70137;56.482;9.154;2023-05-19T05:02:54;103015.69;;;6.03;75.04
80585;BME280;70137;56.482;9.154;2023-05-19T05:05:21;103017.03;;;6.11;74.82
80585;BME280;70137;56.482;9.154;2023-05-19T05:07:47;103012.38;;;6.17;74.87
80585;BME280;70137;56.482;9.154;2023-05-19T05:10:13;103012.81;;;6.25;75.18
80585;BME280;70137;56.482;9.154;2023-05-19T05:12:39;103013.19;;;6.35;75.40
80585;BME280;70137;56.482;9.154;2023-05-19T05:15:05;103014.22;;;6.48;75.77
80585;BME280;70137;56.482;9.154;2023-05-19T05:17:33;103012.56;;;6.63;75.61
80585;BME280;70137;56.482;9.154;2023-05-19T05:20:00;103022.91;;;6.79;75.71
80585;BME280;70137;56.482;9.154;2023-05-19T05:22:25;103011.72;;;6.94;75.90
80585;BME280;70137;56.482;9.154;2023-05-19T05:24:51;103014.41;;;7.08;75.88
80585;BME280;70137;56.482;9.154;2023-05-19T05:27:17;103016.28;;;7.21;75.58
80585;BME280;70137;56.482;9.154;2023-05-19T05:29:42;103013.78;;;7.35;76.26
80585;BME280;70137;56.482;9.154;2023-05-19T05:32:07;103019.72;;;7.51;76.47
80585;BME280;70137;56.482;9.154;2023-05-19T05:34:33;103013.06;;;7.63;76.28
80585;BME280;70137;56.482;9.154;2023-05-19T05:36:59;103020.00;;;7.77;76.27
80585;BME280;70137;56.482;9.154;2023-05-19T05:39:25;103014.94;;;7.89;76.98
80585;BME280;70137;56.482;9.154;2023-05-19T05:41:52;103024.09;;;8.09;76.66
80585;BME280;70137;56.482;9.154;2023-05-19T05:44:17;103017.81;;;8.27;76.69
80585;BME280;70137;56.482;9.154;2023-05-19T05:46:42;103024.50;;;8.46;76.26
80585;BME280;70137;56.482;9.154;2023-05-19T05:49:08;103018.50;;;8.59;76.51
80585;BME280;70137;56.482;9.154;2023-05-19T05:51:34;103026.13;;;8.75;76.34
80585;BME280;70137;56.482;9.154;2023-05-19T05:54:00;103020.09;;;8.89;75.79
80585;BME280;70137;56.482;9.154;2023-05-19T05:56:26;103029.19;;;9.09;76.02
80585;BME280;70137;56.482;9.154;2023-05-19T05:58:52;103029.84;;;9.25;76.05
80585;BME280;70137;56.482;9.154;2023-05-19T06:01:18;103021.09;;;9.40;75.40
80585;BME280;70137;56.482;9.154;2023-05-19T06:03:44;103029.72;;;9.54;74.95
80585;BME280;70137;56.482;9.154;2023-05-19T06:06:10;103023.34;;;9.72;75.02
80585;BME280;70137;56.482;9.154;2023-05-19T06:08:36;103038.59;;;9.89;74.81
80585;BME280;70137;56.482;9.154;2023-05-19T06:11:01;103031.97;;;10.11;74.35
80585;BME280;70137;56.482;9.154;2023-05-19T06:13:33;103033.13;;;10.32;74.61
80585;BME280;70137;56.482;9.154;2023-05-19T06:15:58;103032.47;;;10.54;74.38
80585;BME280;70137;56.482;9.154;2023-05-19T06:18:23;103041.25;;;10.77;74.10
80585;BME280;70137;56.482;9.154;2023-05-19T06:20:49;103043.34;;;10.96;74.17
80585;BME280;70137;56.482;9.154;2023-05-19T06:23:14;103033.19;;;11.16;73.77
80585;BME280;70137;56.482;9.154;2023-05-19T06:25:40;103038.50;;;11.39;73.38
80585;BME280;70137;56.482;9.154;2023-05-19T06:28:05;103028.31;;;11.60;72.90
80585;BME280;70137;56.482;9.154;2023-05-19T06:30:31;103036.81;;;11.73;71.22
80585;BME280;70137;56.482;9.154;2023-05-19T06:32:56;103048.09;;;11.85;71.30
80585;BME280;70137;56.482;9.154;2023-05-19T06:35:21;103040.00;;;12.00;71.09
80585;BME280;70137;56.482;9.154;2023-05-19T06:37:46;103042.34;;;12.15;70.40
80585;BME280;70137;56.482;9.154;2023-05-19T06:40:12;103042.50;;;12.36;70.56
80585;BME280;70137;56.482;9.154;2023-05-19T06:42:37;103044.38;;;12.56;70.44
80585;BME280;70137;56.482;9.154;2023-05-19T06:45:03;103047.41;;;12.72;69.77
80585;BME280;70137;56.482;9.154;2023-05-19T06:47:28;103048.13;;;12.85;69.02
80585;BME280;70137;56.482;9.154;2023-05-19T06:49:54;103051.97;;;13.02;67.46
80585;BME280;70137;56.482;9.154;2023-05-19T06:52:23;103051.69;;;13.16;67.39
80585;BME280;70137;56.482;9.154;2023-05-19T06:54:48;103047.50;;;13.36;65.94
80585;BME280;70137;56.482;9.154;2023-05-19T06:57:14;103054.06;;;13.52;65.64
80585;BME280;70137;56.482;9.154;2023-05-19T06:59:39;103056.09;;;13.69;64.74
80585;BME280;70137;56.482;9.154;2023-05-19T07:02:06;103053.19;;;13.83;64.08
80585;BME280;70137;56.482;9.154;2023-05-19T07:04:31;103054.50;;;13.98;64.36
80585;BME280;70137;56.482;9.154;2023-05-19T07:06:56;103053.22;;;14.14;62.95
80585;BME280;70137;56.482;9.154;2023-05-19T07:09:22;103050.22;;;14.28;62.89
80585;BME280;70137;56.482;9.154;2023-05-19T07:11:48;103054.63;;;14.48;62.62
80585;BME280;70137;56.482;9.154;2023-05-19T07:14:13;103055.75;;;14.65;61.95
80585;BME280;70137;56.482;9.154;2023-05-19T07:16:38;103056.22;;;14.80;59.84
80585;BME280;70137;56.482;9.154;2023-05-19T07:19:03;103064.38;;;14.96;61.38
80585;BME280;70137;56.482;9.154;2023-05-19T07:21:29;103065.06;;;15.08;59.02
80585;BME280;70137;56.482;9.154;2023-05-19T07:23:54;103070.00;;;15.21;60.88
80585;BME280;70137;56.482;9.154;2023-05-19T07:26:20;103063.81;;;15.41;58.96
80585;BME280;70137;56.482;9.154;2023-05-19T07:28:46;103066.03;;;15.55;58.26
80585;BME280;70137;56.482;9.154;2023-05-19T07:31:12;103069.88;;;15.70;58.69
80585;BME280;70137;56.482;9.154;2023-05-19T07:33:37;103072.75;;;15.87;55.64
80585;BME280;70137;56.482;9.154;2023-05-19T07:36:02;103063.50;;;16.02;55.95
80585;BME280;70137;56.482;9.154;2023-05-19T07:38:29;103067.69;;;16.22;56.85
80585;BME280;70137;56.482;9.154;2023-05-19T07:40:55;103060.44;;;16.44;56.11
80585;BME280;70137;56.482;9.154;2023-05-19T07:43:20;103064.72;;;16.72;53.80
80585;BME280;70137;56.482;9.154;2023-05-19T07:45:46;103068.03;;;16.92;50.29
80585;BME280;70137;56.482;9.154;2023-05-19T07:48:11;103070.41;;;16.85;50.80
80585;BME280;70137;56.482;9.154;2023-05-19T07:50:36;103064.88;;;16.88;50.07
80585;BME280;70137;56.482;9.154;2023-05-19T07:53:02;103058.06;;;16.96;49.78
80585;BME280;70137;56.482;9.154;2023-05-19T07:55:27;103064.53;;;17.01;50.72
80585;BME280;70137;56.482;9.154;2023-05-19T07:57:52;103070.22;;;17.14;50.83
80585;BME280;70137;56.482;9.154;2023-05-19T08:00:18;103062.50;;;17.31;51.07
80585;BME280;70137;56.482;9.154;2023-05-19T08:02:43;103061.88;;;17.37;49.48
80585;BME280;70137;56.482;9.154;2023-05-19T08:05:09;103064.81;;;17.16;49.76
80585;BME280;70137;56.482;9.154;2023-05-19T08:07:34;103068.09;;;16.82;48.66
80585;BME280;70137;56.482;9.154;2023-05-19T08:10:00;103065.41;;;16.92;49.47
80585;BME280;70137;56.482;9.154;2023-05-19T08:12:26;103061.09;;;17.01;48.17
80585;BME280;70137;56.482;9.154;2023-05-19T08:14:51;103062.50;;;17.13;49.04
80585;BME280;70137;56.482;9.154;2023-05-19T08:17:16;103059.00;;;17.22;47.29
80585;BME280;70137;56.482;9.154;2023-05-19T08:19:42;103055.09;;;17.26;47.79
80585;BME280;70137;56.482;9.154;2023-05-19T08:22:07;103060.16;;;17.45;49.03
80585;BME280;70137;56.482;9.154;2023-05-19T08:24:32;103050.94;;;17.59;47.63
80585;BME280;70137;56.482;9.154;2023-05-19T08:26:58;103048.22;;;17.69;47.44
80585;BME280;70137;56.482;9.154;2023-05-19T08:29:23;103044.53;;;17.80;46.59
80585;BME280;70137;56.482;9.154;2023-05-19T08:31:48;103041.31;;;17.94;46.87
80585;BME280;70137;56.482;9.154;2023-05-19T08:34:14;103047.03;;;18.15;46.07
80585;BME280;70137;56.482;9.154;2023-05-19T08:36:39;103036.59;;;18.31;47.05
80585;BME280;70137;56.482;9.154;2023-05-19T08:39:06;103034.22;;;18.54;45.57
80585;BME280;70137;56.482;9.154;2023-05-19T08:41:31;103040.63;;;18.60;44.42
80585;BME280;70137;56.482;9.154;2023-05-19T08:43:56;103039.84;;;18.68;45.57
80585;BME280;70137;56.482;9.154;2023-05-19T08:46:24;103040.88;;;18.83;44.51
80585;BME280;70137;56.482;9.154;2023-05-19T08:48:53;103031.03;;;18.93;41.63
80585;BME280;70137;56.482;9.154;2023-05-19T08:54:01;103024.16;;;19.16;42.55
80585;BME280;70137;56.482;9.154;2023-05-19T08:56:29;103027.44;;;19.27;43.17
80585;BME280;70137;56.482;9.154;2023-05-19T08:58:55;103024.78;;;19.35;39.57
80585;BME280;70137;56.482;9.154;2023-05-19T09:01:24;103030.72;;;19.29;38.91
80585;BME280;70137;56.482;9.154;2023-05-19T09:03:51;103021.19;;;19.28;40.66
80585;BME280;70137;56.482;9.154;2023-05-19T09:06:16;103020.34;;;19.19;40.25
80585;BME280;70137;56.482;9.154;2023-05-19T09:08:42;103023.81;;;19.28;42.10
80585;BME280;70137;56.482;9.154;2023-05-19T09:11:08;103021.50;;;19.41;39.32
80585;BME280;70137;56.482;9.154;2023-05-19T09:13:34;103014.59;;;19.64;40.17
80585;BME280;70137;56.482;9.154;2023-05-19T09:15:59;103021.31;;;19.75;39.38
80585;BME280;70137;56.482;9.154;2023-05-19T09:18:26;103019.13;;;19.87;38.93
80585;BME280;70137;56.482;9.154;2023-05-19T09:20:56;103012.41;;;19.76;40.05
80585;BME280;70137;56.482;9.154;2023-05-19T09:23:29;103007.84;;;19.70;40.45
80585;BME280;70137;56.482;9.154;2023-05-19T09:25:55;103002.88;;;19.83;39.74
80585;BME280;70137;56.482;9.154;2023-05-19T09:28:25;103000.19;;;19.99;39.14
80585;BME280;70137;56.482;9.154;2023-05-19T09:30:58;102999.31;;;20.07;38.93
80585;BME280;70137;56.482;9.154;2023-05-19T09:33:24;102999.59;;;20.20;39.49
80585;BME280;70137;56.482;9.154;2023-05-19T09:35:49;103007.47;;;20.28;37.66
80585;BME280;70137;56.482;9.154;2023-05-19T09:38:18;103000.84;;;20.33;38.51
80585;BME280;70137;56.482;9.154;2023-05-19T09:40:47;102999.81;;;20.42;39.35
80585;BME280;70137;56.482;9.154;2023-05-19T09:43:12;102997.66;;;20.45;37.55
80585;BME280;70137;56.482;9.154;2023-05-19T09:45:38;102995.22;;;20.44;35.21
80585;BME280;70137;56.482;9.154;2023-05-19T09:48:04;102996.94;;;20.28;37.52
80585;BME280;70137;56.482;9.154;2023-05-19T09:50:30;102991.44;;;20.38;38.66
80585;BME280;70137;56.482;9.154;2023-05-19T09:52:56;102995.75;;;20.62;39.30
80585;BME280;70137;56.482;9.154;2023-05-19T09:55:25;102990.84;;;20.82;37.87
80585;BME280;70137;56.482;9.154;2023-05-19T09:57:53;102997.25;;;20.88;38.03
80585;BME280;70137;56.482;9.154;2023-05-19T10:00:20;102994.22;;;20.45;38.93
80585;BME280;70137;56.482;9.154;2023-05-19T10:02:47;102992.53;;;20.52;39.58
80585;BME280;70137;56.482;9.154;2023-05-19T10:05:14;102995.13;;;20.60;38.90
80585;BME280;70137;56.482;9.154;2023-05-19T10:07:51;102987.16;;;20.68;38.05
80585;BME280;70137;56.482;9.154;2023-05-19T10:10:17;102990.09;;;20.73;39.85
80585;BME280;70137;56.482;9.154;2023-05-19T10:12:45;102995.34;;;20.73;38.00
80585;BME280;70137;56.482;9.154;2023-05-19T10:15:15;102990.59;;;20.46;38.03
80585;BME280;70137;56.482;9.154;2023-05-19T10:17:42;102984.88;;;20.34;38.44
80585;BME280;70137;56.482;9.154;2023-05-19T10:20:13;102994.72;;;20.40;39.56
80585;BME280;70137;56.482;9.154;2023-05-19T10:22:40;102988.81;;;20.46;39.62
80585;BME280;70137;56.482;9.154;2023-05-19T10:25:06;102988.22;;;20.59;39.74
80585;BME280;70137;56.482;9.154;2023-05-19T10:27:35;102989.91;;;20.75;39.59
80585;BME280;70137;56.482;9.154;2023-05-19T10:30:10;102993.41;;;20.90;38.06
80585;BME280;70137;56.482;9.154;2023-05-19T10:32:38;102993.31;;;20.83;38.47
80585;BME280;70137;56.482;9.154;2023-05-19T10:41:27;102987.78;;;21.54;35.81
80585;BME280;70137;56.482;9.154;2023-05-19T10:44:02;102985.38;;;21.59;35.00
80585;BME280;70137;56.482;9.154;2023-05-19T10:46:30;102986.31;;;21.66;35.18
80585;BME280;70137;56.482;9.154;2023-05-19T10:48:55;102985.13;;;21.83;35.56
80585;BME280;70137;56.482;9.154;2023-05-19T10:51:29;102983.94;;;21.86;35.45
80585;BME280;70137;56.482;9.154;2023-05-19T10:53:55;102985.41;;;21.74;35.33
80585;BME280;70137;56.482;9.154;2023-05-19T10:56:30;102990.13;;;21.78;34.46
80585;BME280;70137;56.482;9.154;2023-05-19T10:58:59;102989.03;;;21.87;33.78
80585;BME280;70137;56.482;9.154;2023-05-19T11:01:32;102982.19;;;21.93;34.26
80585;BME280;70137;56.482;9.154;2023-05-19T11:04:04;102991.13;;;21.92;31.96
80585;BME280;70137;56.482;9.154;2023-05-19T11:06:31;102978.25;;;22.04;32.27
80585;BME280;70137;56.482;9.154;2023-05-19T11:08:58;102976.81;;;22.16;31.23
80585;BME280;70137;56.482;9.154;2023-05-19T11:11:25;102981.78;;;22.25;31.32
80585;BME280;70137;56.482;9.154;2023-05-19T11:13:52;102969.19;;;22.42;30.35
80585;BME280;70137;56.482;9.154;2023-05-19T11:16:28;102965.03;;;22.54;29.70
80585;BME280;70137;56.482;9.154;2023-05-19T11:18:58;102970.06;;;22.71;30.65
80585;BME280;70137;56.482;9.154;2023-05-19T11:21:23;102968.81;;;22.88;30.88
80585;BME280;70137;56.482;9.154;2023-05-19T11:24:07;102961.47;;;23.11;31.32
80585;BME280;70137;56.482;9.154;2023-05-19T11:26:39;102961.53;;;23.18;29.49
80585;BME280;70137;56.482;9.154;2023-05-19T11:29:06;102968.81;;;23.16;28.47
80585;BME280;70137;56.482;9.154;2023-05-19T11:31:33;102972.38;;;23.02;30.09
80585;BME280;70137;56.482;9.154;2023-05-19T11:34:00;102964.50;;;23.08;30.24
80585;BME280;70137;56.482;9.154;2023-05-19T11:36:27;102961.47;;;23.11;29.56
80585;BME280;70137;56.482;9.154;2023-05-19T11:38:53;102961.88;;;22.87;29.71
80585;BME280;70137;56.482;9.154;2023-05-19T11:41:19;102971.75;;;22.78;30.95
80585;BME280;70137;56.482;9.154;2023-05-19T11:43:46;102959.22;;;22.87;30.51
80585;BME280;70137;56.482;9.154;2023-05-19T11:46:11;102957.53;;;23.01;29.21
80585;BME280;70137;56.482;9.154;2023-05-19T11:48:37;102955.69;;;23.01;28.62
80585;BME280;70137;56.482;9.154;2023-05-19T11:51:05;102955.78;;;23.14;29.76
80585;BME280;70137;56.482;9.154;2023-05-19T11:53:30;102954.63;;;23.24;29.34
80585;BME280;70137;56.482;9.154;2023-05-19T11:56:02;102956.72;;;23.35;31.89
80585;BME280;70137;56.482;9.154;2023-05-19T11:58:27;102960.28;;;23.49;30.79
80585;BME280;70137;56.482;9.154;2023-05-19T12:00:53;102958.06;;;23.52;30.62
80585;BME280;70137;56.482;9.154;2023-05-19T12:03:22;102967.63;;;23.53;30.69
80585;BME280;70137;56.482;9.154;2023-05-19T12:05:52;102956.91;;;23.61;30.73
80585;BME280;70137;56.482;9.154;2023-05-19T12:08:18;102950.69;;;23.76;28.62
80585;BME280;70137;56.482;9.154;2023-05-19T12:10:46;102954.09;;;23.69;30.45
80585;BME280;70137;56.482;9.154;2023-05-19T12:13:12;102954.34;;;23.81;31.54
80585;BME280;70137;56.482;9.154;2023-05-19T12:15:37;102944.66;;;23.95;29.97
80585;BME280;70137;56.482;9.154;2023-05-19T12:18:03;102946.09;;;24.04;30.01
80585;BME280;70137;56.482;9.154;2023-05-19T12:20:29;102943.25;;;24.12;30.46
80585;BME280;70137;56.482;9.154;2023-05-19T12:22:59;102939.41;;;24.21;30.78
80585;BME280;70137;56.482;9.154;2023-05-19T12:25:25;102934.88;;;24.09;30.67
80585;BME280;70137;56.482;9.154;2023-05-19T12:27:56;102942.47;;;24.18;31.27
80585;BME280;70137;56.482;9.154;2023-05-19T12:30:26;102933.91;;;24.30;32.01
80585;BME280;70137;56.482;9.154;2023-05-19T12:32:53;102929.91;;;24.60;31.36
80585;BME280;70137;56.482;9.154;2023-05-19T12:35:19;102938.47;;;24.49;31.55
80585;BME280;70137;56.482;9.154;2023-05-19T12:37:44;102937.84;;;24.34;30.06
80585;BME280;70137;56.482;9.154;2023-05-19T12:40:15;102933.91;;;24.16;30.90
80585;BME280;70137;56.482;9.154;2023-05-19T12:42:43;102938.78;;;24.13;30.29
80585;BME280;70137;56.482;9.154;2023-05-19T12:45:09;102935.50;;;24.11;30.78
80585;BME280;70137;56.482;9.154;2023-05-19T12:47:35;102934.69;;;24.10;31.55
80585;BME280;70137;56.482;9.154;2023-05-19T12:50:05;102935.53;;;24.17;30.70
80585;BME280;70137;56.482;9.154;2023-05-19T12:52:41;102930.00;;;24.12;29.85
80585;BME280;70137;56.482;9.154;2023-05-19T12:55:07;102926.94;;;24.09;30.14
80585;BME280;70137;56.482;9.154;2023-05-19T12:57:35;102925.75;;;24.18;30.71
80585;BME280;70137;56.482;9.154;2023-05-19T13:03:16;102918.00;;;24.16;30.47
80585;BME280;70137;56.482;9.154;2023-05-19T13:05:44;102915.53;;;24.08;31.70
80585;BME280;70137;56.482;9.154;2023-05-19T13:08:15;102918.59;;;24.05;30.66
80585;BME280;70137;56.482;9.154;2023-05-19T13:10:43;102923.63;;;23.87;31.01
80585;BME280;70137;56.482;9.154;2023-05-19T13:13:09;102916.66;;;23.38;30.41
80585;BME280;70137;56.482;9.154;2023-05-19T13:15:37;102909.03;;;23.22;31.51
80585;BME280;70137;56.482;9.154;2023-05-19T13:18:05;102909.59;;;23.45;31.71